sensor_id;sensor_type;location;lat;lon;timestamp;temperature;humidity
31747;DHT22;18319;48.974;8.462;2023-05-07T00:00:22;13.70;99.90
31747;DHT22;18319;48.974;8.462;2023-05-07T00:02:48;13.70;99.90
31747;DHT22;18319;48.974;8.462;2023-05-07T00:05:16;13.60;99.90
31747;DHT22;18319;48.974;8.462;2023-05-07T00:07:43;13.60;99.90
31747;DHT22;18319;48.974;8.462;2023-05-07T00:10:10;13.50;99.90
31747;DHT22;18319;48.974;8.462;2023-05-07T00:12:38;13.50;99.90
31747;DHT22;18319;48.974;8.462;2023-05-07T00:15:06;13.50;99.90
31747;DHT22;18319;48.974;8.462;2023-05-07T00:17:33;13.50;99.90
31747;DHT22;18319;48.974;8.462;2023-05-07T00:20:00;13.50;99.90
31747;DHT22;18319;48.974;8.462;2023-05-07T00:22:29;13.50;99.90
31747;DHT22;18319;48.974;8.462;2023-05-07T00:24:56;13.50;99.90
31747;DHT22;18319;48.974;8.462;2023-05-07T00:27:23;13.40;99.90
31747;DHT22;18319;48.974;8.462;2023-05-07T00:29:50;13.40;99.90
31747;DHT22;18319;48.974;8.462;2023-05-07T00:32:17;13.40;99.90
31747;DHT22;18319;48.974;8.462;2023-05-07T00:34:43;13.30;99.90
31747;DHT22;18319;48.974;8.462;2023-05-07T00:37:10;13.30;99.90
31747;DHT22;18319;48.974;8.462;2023-05-07T00:39:38;13.20;99.90
31747;DHT22;18319;48.974;8.462;2023-05-07T00:42:05;13.20;99.90
31747;DHT22;18319;48.974;8.462;2023-05-07T00:44:32;13.20;99.90
31747;DHT22;18319;48.974;8.462;2023-05-07T00:47:01;13.20;99.90
31747;DHT22;18319;48.974;8.462;2023-05-07T00:49:35;13.10;99.90
31747;DHT22;18319;48.974;8.462;2023-05-07T00:52:04;13.10;99.90
31747;DHT22;18319;48.974;8.462;2023-05-07T00:54:32;13.10;99.90
31747;DHT22;18319;48.974;8.462;2023-05-07T00:57:02;13.10;99.90
31747;DHT22;18319;48.974;8.462;2023-05-07T00:59:29;13.10;99.90
31747;DHT22;18319;48.974;8.462;2023-05-07T01:01:57;13.10;99.90
31747;DHT22;18319;48.974;8.462;2023-05-07T01:04:23;13.10;99.90
31747;DHT22;18319;48.974;8.462;2023-05-07T01:06:50;13.00;99.90
31747;DHT22;18319;48.974;8.462;2023-05-07T01:09:19;13.00;99.90
31747;DHT22;18319;48.974;8.462;2023-05-07T01:11:47;13.00;99.90
31747;DHT22;18319;48.974;8.462;2023-05-07T01:14:15;13.00;99.90
31747;DHT22;18319;48.974;8.462;2023-05-07T01:16:42;13.00;99.90
31747;DHT22;18319;48.974;8.462;2023-05-07T01:19:10;12.90;99.90
31747;DHT22;18319;48.974;8.462;2023-05-07T01:21:43;12.90;99.90
31747;DHT22;18319;48.974;8.462;2023-05-07T01:24:12;12.90;99.90
31747;DHT22;18319;48.974;8.462;2023-05-07T01:26:41;12.90;99.90
31747;DHT22;18319;48.974;8.462;2023-05-07T01:29:08;12.90;99.90
31747;DHT22;18319;48.974;8.462;2023-05-07T01:31:36;12.90;99.90
31747;DHT22;18319;48.974;8.462;2023-05-07T01:34:04;12.90;99.90
31747;DHT22;18319;48.974;8.462;2023-05-07T01:36:31;12.90;99.90
31747;DHT22;18319;48.974;8.462;2023-05-07T01:38:59;12.90;99.90
31747;DHT22;18319;48.974;8.462;2023-05-07T01:41:27;12.90;99.90
31747;DHT22;18319;48.974;8.462;2023-05-07T01:43:55;12.90;99.90
31747;DHT22;18319;48.974;8.462;2023-05-07T01:46:23;13.00;99.90
31747;DHT22;18319;48.974;8.462;2023-05-07T01:48:51;13.00;99.90
31747;DHT22;18319;48.974;8.462;2023-05-07T01:51:18;13.00;99.90
31747;DHT22;18319;48.974;8.462;2023-05-07T01:53:45;13.00;99.90
31747;DHT22;18319;48.974;8.462;2023-05-07T01:56:16;13.10;99.90
31747;DHT22;18319;48.974;8.462;2023-05-07T01:58:44;13.10;99.90
31747;DHT22;18319;48.974;8.462;2023-05-07T02:01:11;13.10;99.90
31747;DHT22;18319;48.974;8.462;2023-05-07T02:03:38;13.20;99.90
31747;DHT22;18319;48.974;8.462;2023-05-07T02:06:05;13.20;99.90
31747;DHT22;18319;48.974;8.462;2023-05-07T02:08:32;13.20;99.90
31747;DHT22;18319;48.974;8.462;2023-05-07T02:10:58;13.10;99.90
31747;DHT22;18319;48.974;8.462;2023-05-07T02:13:28;13.10;99.90
31747;DHT22;18319;48.974;8.462;2023-05-07T02:15:56;13.10;99.90
31747;DHT22;18319;48.974;8.462;2023-05-07T02:18:23;13.00;99.90
31747;DHT22;18319;48.974;8.462;2023-05-07T02:20:50;13.00;99.90
31747;DHT22;18319;48.974;8.462;2023-05-07T02:23:17;13.00;99.90
31747;DHT22;18319;48.974;8.462;2023-05-07T02:25:43;13.00;99.90
31747;DHT22;18319;48.974;8.462;2023-05-07T02:28:11;13.00;99.90
31747;DHT22;18319;48.974;8.462;2023-05-07T02:30:38;13.00;99.90
31747;DHT22;18319;48.974;8.462;2023-05-07T02:33:06;13.00;99.90
31747;DHT22;18319;48.974;8.462;2023-05-07T02:35:33;13.00;99.90
31747;DHT22;18319;48.974;8.462;2023-05-07T02:38:00;12.90;99.90
31747;DHT22;18319;48.974;8.462;2023-05-07T02:40:27;12.90;99.90
31747;DHT22;18319;48.974;8.462;2023-05-07T02:42:54;12.90;99.90
31747;DHT22;18319;48.974;8.462;2023-05-07T02:45:21;12.90;99.90
31747;DHT22;18319;48.974;8.462;2023-05-07T02:47:47;12.80;99.90
31747;DHT22;18319;48.974;8.462;2023-05-07T02:50:15;12.80;99.90
31747;DHT22;18319;48.974;8.462;2023-05-07T02:52:42;12.80;99.90
31747;DHT22;18319;48.974;8.462;2023-05-07T02:55:09;12.80;99.90
31747;DHT22;18319;48.974;8.462;2023-05-07T02:57:36;12.80;99.90
31747;DHT22;18319;48.974;8.462;2023-05-07T03:00:11;12.80;99.90
31747;DHT22;18319;48.974;8.462;2023-05-07T03:02:38;12.80;99.90
31747;DHT22;18319;48.974;8.462;2023-05-07T03:05:06;12.80;99.90
31747;DHT22;18319;48.974;8.462;2023-05-07T03:07:34;12.80;99.90
31747;DHT22;18319;48.974;8.462;2023-05-07T03:10:01;12.80;99.90
31747;DHT22;18319;48.974;8.462;2023-05-07T03:12:28;12.80;99.90
31747;DHT22;18319;48.974;8.462;2023-05-07T03:14:55;12.80;99.90
31747;DHT22;18319;48.974;8.462;2023-05-07T03:17:22;12.80;99.90
31747;DHT22;18319;48.974;8.462;2023-05-07T03:19:48;12.80;99.90
31747;DHT22;18319;48.974;8.462;2023-05-07T03:22:15;12.80;99.90
31747;DHT22;18319;48.974;8.462;2023-05-07T03:24:43;12.80;99.90
31747;DHT22;18319;48.974;8.462;2023-05-07T03:27:10;12.80;99.90
31747;DHT22;18319;48.974;8.462;2023-05-07T03:29:37;12.70;99.90
31747;DHT22;18319;48.974;8.462;2023-05-07T03:32:04;12.60;99.90
31747;DHT22;18319;48.974;8.462;2023-05-07T03:34:31;12.60;99.90
31747;DHT22;18319;48.974;8.462;2023-05-07T03:36:57;12.50;99.90
31747;DHT22;18319;48.974;8.462;2023-05-07T03:39:24;12.50;99.90
31747;DHT22;18319;48.974;8.462;2023-05-07T03:41:52;12.40;99.90
31747;DHT22;18319;48.974;8.462;2023-05-07T03:44:19;12.40;99.90
31747;DHT22;18319;48.974;8.462;2023-05-07T03:46:46;12.40;99.90
31747;DHT22;18319;48.974;8.462;2023-05-07T03:49:13;12.30;99.90
31747;DHT22;18319;48.974;8.462;2023-05-07T03:51:39;12.30;99.90
31747;DHT22;18319;48.974;8.462;2023-05-07T03:54:07;12.30;99.90
31747;DHT22;18319;48.974;8.462;2023-05-07T03:56:34;12.30;99.90
31747;DHT22;18319;48.974;8.462;2023-05-07T03:59:02;12.30;99.90
31747;DHT22;18319;48.974;8.462;2023-05-07T04:01:29;12.30;99.90
31747;DHT22;18319;48.974;8.462;2023-05-07T04:03:56;12.30;99.90
31747;DHT22;18319;48.974;8.462;2023-05-07T04:06:23;12.20;99.90
31747;DHT22;18319;48.974;8.462;2023-05-07T04:08:50;12.20;99.90
31747;DHT22;18319;48.974;8.462;2023-05-07T04:11:16;12.30;99.90
31747;DHT22;18319;48.974;8.462;2023-05-07T04:13:43;12.30;99.90
31747;DHT22;18319;48.974;8.462;2023-05-07T04:16:11;12.30;99.90
31747;DHT22;18319;48.974;8.462;2023-05-07T04:18:38;12.30;99.90
31747;DHT22;18319;48.974;8.462;2023-05-07T04:21:05;12.30;99.90
31747;DHT22;18319;48.974;8.462;2023-05-07T04:23:32;12.40;99.90
31747;DHT22;18319;48.974;8.462;2023-05-07T04:25:58;12.40;99.90
31747;DHT22;18319;48.974;8.462;2023-05-07T04:28:26;12.40;99.90
31747;DHT22;18319;48.974;8.462;2023-05-07T04:30:53;12.40;99.90
31747;DHT22;18319;48.974;8.462;2023-05-07T04:33:21;12.50;99.90
31747;DHT22;18319;48.974;8.462;2023-05-07T04:35:47;12.50;99.90
31747;DHT22;18319;48.974;8.462;2023-05-07T04:38:14;12.50;99.90
31747;DHT22;18319;48.974;8.462;2023-05-07T04:40:42;12.60;99.90
31747;DHT22;18319;48.974;8.462;2023-05-07T04:43:08;12.60;99.90
31747;DHT22;18319;48.974;8.462;2023-05-07T04:45:35;12.70;99.90
31747;DHT22;18319;48.974;8.462;2023-05-07T04:48:02;12.70;99.90
31747;DHT22;18319;48.974;8.462;2023-05-07T04:50:30;12.70;99.90
31747;DHT22;18319;48.974;8.462;2023-05-07T04:52:57;12.80;99.90
31747;DHT22;18319;48.974;8.462;2023-05-07T04:55:24;12.80;99.90
31747;DHT22;18319;48.974;8.462;2023-05-07T04:57:52;12.90;99.90
31747;DHT22;18319;48.974;8.462;2023-05-07T05:00:19;12.90;99.90
31747;DHT22;18319;48.974;8.462;2023-05-07T05:02:46;13.00;99.90
31747;DHT22;18319;48.974;8.462;2023-05-07T05:05:13;13.00;99.90
31747;DHT22;18319;48.974;8.462;2023-05-07T05:07:41;13.10;99.90
31747;DHT22;18319;48.974;8.462;2023-05-07T05:10:08;13.20;99.90
31747;DHT22;18319;48.974;8.462;2023-05-07T05:12:34;13.30;99.90
31747;DHT22;18319;48.974;8.462;2023-05-07T05:15:01;13.30;99.90
31747;DHT22;18319;48.974;8.462;2023-05-07T05:17:28;13.40;99.90
31747;DHT22;18319;48.974;8.462;2023-05-07T05:19:55;13.40;99.90
31747;DHT22;18319;48.974;8.462;2023-05-07T05:22:21;13.50;99.90
31747;DHT22;18319;48.974;8.462;2023-05-07T05:24:49;13.60;99.90
31747;DHT22;18319;48.974;8.462;2023-05-07T05:27:16;13.70;99.90
31747;DHT22;18319;48.974;8.462;2023-05-07T05:29:43;13.80;99.90
31747;DHT22;18319;48.974;8.462;2023-05-07T05:32:10;13.90;99.90
31747;DHT22;18319;48.974;8.462;2023-05-07T05:34:36;14.00;99.90
31747;DHT22;18319;48.974;8.462;2023-05-07T05:37:03;14.10;99.90
31747;DHT22;18319;48.974;8.462;2023-05-07T05:39:30;14.30;99.90
31747;DHT22;18319;48.974;8.462;2023-05-07T05:41:58;14.50;99.90
31747;DHT22;18319;48.974;8.462;2023-05-07T05:44:25;14.70;99.90
31747;DHT22;18319;48.974;8.462;2023-05-07T05:46:52;15.00;99.90
31747;DHT22;18319;48.974;8.462;2023-05-07T05:49:20;15.20;99.90
31747;DHT22;18319;48.974;8.462;2023-05-07T05:51:47;15.40;99.90
31747;DHT22;18319;48.974;8.462;2023-05-07T05:54:14;15.50;99.90
31747;DHT22;18319;48.974;8.462;2023-05-07T05:56:42;15.60;99.90
31747;DHT22;18319;48.974;8.462;2023-05-07T05:59:10;15.70;99.90
31747;DHT22;18319;48.974;8.462;2023-05-07T06:01:37;15.80;99.90
31747;DHT22;18319;48.974;8.462;2023-05-07T06:04:04;15.70;99.90
31747;DHT22;18319;48.974;8.462;2023-05-07T06:06:31;15.80;99.90
31747;DHT22;18319;48.974;8.462;2023-05-07T06:08:58;15.80;99.90
31747;DHT22;18319;48.974;8.462;2023-05-07T06:11:26;15.90;99.90
31747;DHT22;18319;48.974;8.462;2023-05-07T06:13:53;16.10;99.90
31747;DHT22;18319;48.974;8.462;2023-05-07T06:16:21;16.20;99.90
31747;DHT22;18319;48.974;8.462;2023-05-07T06:18:48;16.40;99.90
31747;DHT22;18319;48.974;8.462;2023-05-07T06:21:14;16.50;99.90
31747;DHT22;18319;48.974;8.462;2023-05-07T06:23:41;16.60;99.90
31747;DHT22;18319;48.974;8.462;2023-05-07T06:26:08;16.70;99.90
31747;DHT22;18319;48.974;8.462;2023-05-07T06:28:35;16.90;99.90
31747;DHT22;18319;48.974;8.462;2023-05-07T06:31:12;16.90;99.90
31747;DHT22;18319;48.974;8.462;2023-05-07T06:33:40;17.00;99.90
31747;DHT22;18319;48.974;8.462;2023-05-07T06:36:07;17.20;99.90
31747;DHT22;18319;48.974;8.462;2023-05-07T06:38:34;17.30;99.90
31747;DHT22;18319;48.974;8.462;2023-05-07T06:41:00;17.50;99.90
31747;DHT22;18319;48.974;8.462;2023-05-07T06:43:27;17.70;99.90
31747;DHT22;18319;48.974;8.462;2023-05-07T06:45:54;18.00;99.90
31747;DHT22;18319;48.974;8.462;2023-05-07T06:48:21;18.20;99.90
31747;DHT22;18319;48.974;8.462;2023-05-07T06:50:49;18.30;99.90
31747;DHT22;18319;48.974;8.462;2023-05-07T06:53:16;18.40;99.90
31747;DHT22;18319;48.974;8.462;2023-05-07T06:55:43;18.40;99.90
31747;DHT22;18319;48.974;8.462;2023-05-07T06:58:09;18.30;99.90
31747;DHT22;18319;48.974;8.462;2023-05-07T07:00:36;18.20;99.90
31747;DHT22;18319;48.974;8.462;2023-05-07T07:03:03;18.00;99.90
31747;DHT22;18319;48.974;8.462;2023-05-07T07:05:30;17.80;99.90
31747;DHT22;18319;48.974;8.462;2023-05-07T07:07:58;17.80;99.90
31747;DHT22;18319;48.974;8.462;2023-05-07T07:10:25;17.80;99.90
31747;DHT22;18319;48.974;8.462;2023-05-07T07:12:52;18.00;99.90
31747;DHT22;18319;48.974;8.462;2023-05-07T07:15:19;18.20;99.90
31747;DHT22;18319;48.974;8.462;2023-05-07T07:17:47;18.40;99.90
31747;DHT22;18319;48.974;8.462;2023-05-07T07:20:14;18.70;99.90
31747;DHT22;18319;48.974;8.462;2023-05-07T07:22:41;18.90;99.90
31747;DHT22;18319;48.974;8.462;2023-05-07T07:25:10;19.10;99.90
31747;DHT22;18319;48.974;8.462;2023-05-07T07:27:37;19.30;99.90
31747;DHT22;18319;48.974;8.462;2023-05-07T07:30:06;19.50;99.90
31747;DHT22;18319;48.974;8.462;2023-05-07T07:32:33;19.70;99.90
31747;DHT22;18319;48.974;8.462;2023-05-07T07:35:00;19.70;99.90
31747;DHT22;18319;48.974;8.462;2023-05-07T07:37:27;19.80;99.90
31747;DHT22;18319;48.974;8.462;2023-05-07T07:39:55;19.90;99.90
31747;DHT22;18319;48.974;8.462;2023-05-07T07:42:23;20.00;99.90
31747;DHT22;18319;48.974;8.462;2023-05-07T07:44:50;20.00;99.90
31747;DHT22;18319;48.974;8.462;2023-05-07T07:47:17;20.00;99.90
31747;DHT22;18319;48.974;8.462;2023-05-07T07:49:43;19.70;99.90
31747;DHT22;18319;48.974;8.462;2023-05-07T07:52:10;19.50;99.90
31747;DHT22;18319;48.974;8.462;2023-05-07T07:54:37;19.40;99.90
31747;DHT22;18319;48.974;8.462;2023-05-07T07:57:04;19.30;99.90
31747;DHT22;18319;48.974;8.462;2023-05-07T07:59:32;19.40;99.90
31747;DHT22;18319;48.974;8.462;2023-05-07T08:01:59;19.50;99.90
31747;DHT22;18319;48.974;8.462;2023-05-07T08:04:26;19.80;99.90
31747;DHT22;18319;48.974;8.462;2023-05-07T08:06:53;20.00;99.90
31747;DHT22;18319;48.974;8.462;2023-05-07T08:09:21;20.30;99.90
31747;DHT22;18319;48.974;8.462;2023-05-07T08:11:48;20.40;99.90
31747;DHT22;18319;48.974;8.462;2023-05-07T08:14:15;20.60;99.90
31747;DHT22;18319;48.974;8.462;2023-05-07T08:16:43;20.90;99.90
31747;DHT22;18319;48.974;8.462;2023-05-07T08:19:10;21.50;99.90
31747;DHT22;18319;48.974;8.462;2023-05-07T08:21:39;22.20;99.90
31747;DHT22;18319;48.974;8.462;2023-05-07T08:24:06;22.70;99.90
31747;DHT22;18319;48.974;8.462;2023-05-07T08:26:33;23.30;99.90
31747;DHT22;18319;48.974;8.462;2023-05-07T08:29:01;23.90;99.90
31747;DHT22;18319;48.974;8.462;2023-05-07T08:31:28;24.40;99.90
31747;DHT22;18319;48.974;8.462;2023-05-07T08:33:56;24.70;99.90
31747;DHT22;18319;48.974;8.462;2023-05-07T08:36:23;24.80;99.90
31747;DHT22;18319;48.974;8.462;2023-05-07T08:38:51;24.90;98.20
31747;DHT22;18319;48.974;8.462;2023-05-07T08:41:18;25.00;97.20
31747;DHT22;18319;48.974;8.462;2023-05-07T08:43:48;25.10;97.20
31747;DHT22;18319;48.974;8.462;2023-05-07T08:46:17;25.20;98.00
31747;DHT22;18319;48.974;8.462;2023-05-07T08:48:45;25.10;97.80
31747;DHT22;18319;48.974;8.462;2023-05-07T08:51:16;25.20;97.90
31747;DHT22;18319;48.974;8.462;2023-05-07T08:53:44;25.40;97.20
31747;DHT22;18319;48.974;8.462;2023-05-07T08:56:11;25.70;94.90
31747;DHT22;18319;48.974;8.462;2023-05-07T08:58:38;25.70;94.10
31747;DHT22;18319;48.974;8.462;2023-05-07T09:01:08;25.90;92.80
31747;DHT22;18319;48.974;8.462;2023-05-07T09:03:36;26.20;92.90
31747;DHT22;18319;48.974;8.462;2023-05-07T09:06:04;26.20;91.30
31747;DHT22;18319;48.974;8.462;2023-05-07T09:08:33;26.00;87.40
31747;DHT22;18319;48.974;8.462;2023-05-07T09:11:01;26.10;87.60
31747;DHT22;18319;48.974;8.462;2023-05-07T09:13:28;26.20;85.70
31747;DHT22;18319;48.974;8.462;2023-05-07T09:15:56;26.20;90.60
31747;DHT22;18319;48.974;8.462;2023-05-07T09:18:23;26.30;91.50
31747;DHT22;18319;48.974;8.462;2023-05-07T09:20:50;26.20;86.40
31747;DHT22;18319;48.974;8.462;2023-05-07T09:23:17;26.10;81.80
31747;DHT22;18319;48.974;8.462;2023-05-07T09:25:45;25.90;80.70
31747;DHT22;18319;48.974;8.462;2023-05-07T09:28:12;25.90;87.30
31747;DHT22;18319;48.974;8.462;2023-05-07T09:30:39;25.80;79.30
31747;DHT22;18319;48.974;8.462;2023-05-07T09:33:06;25.70;80.30
31747;DHT22;18319;48.974;8.462;2023-05-07T09:35:32;25.70;82.80
31747;DHT22;18319;48.974;8.462;2023-05-07T09:38:01;25.70;81.10
31747;DHT22;18319;48.974;8.462;2023-05-07T09:40:29;25.10;78.40
31747;DHT22;18319;48.974;8.462;2023-05-07T09:43:08;25.00;83.10
31747;DHT22;18319;48.974;8.462;2023-05-07T09:45:36;24.90;81.90
31747;DHT22;18319;48.974;8.462;2023-05-07T09:48:05;24.80;80.20
31747;DHT22;18319;48.974;8.462;2023-05-07T09:50:35;24.80;84.90
31747;DHT22;18319;48.974;8.462;2023-05-07T09:53:03;24.90;88.20
31747;DHT22;18319;48.974;8.462;2023-05-07T09:55:30;24.90;85.80
31747;DHT22;18319;48.974;8.462;2023-05-07T09:57:59;25.00;90.30
31747;DHT22;18319;48.974;8.462;2023-05-07T10:00:28;25.00;88.20
31747;DHT22;18319;48.974;8.462;2023-05-07T10:02:56;24.80;90.30
31747;DHT22;18319;48.974;8.462;2023-05-07T10:05:24;24.70;90.70
31747;DHT22;18319;48.974;8.462;2023-05-07T10:07:53;24.50;86.40
31747;DHT22;18319;48.974;8.462;2023-05-07T10:10:20;24.40;90.70
31747;DHT22;18319;48.974;8.462;2023-05-07T10:12:47;24.30;91.00
31747;DHT22;18319;48.974;8.462;2023-05-07T10:15:16;24.00;85.90
31747;DHT22;18319;48.974;8.462;2023-05-07T10:17:44;23.80;89.60
31747;DHT22;18319;48.974;8.462;2023-05-07T10:20:11;23.60;93.00
31747;DHT22;18319;48.974;8.462;2023-05-07T10:22:39;23.50;94.10
31747;DHT22;18319;48.974;8.462;2023-05-07T10:25:14;23.30;90.30
31747;DHT22;18319;48.974;8.462;2023-05-07T10:27:42;23.40;91.50
31747;DHT22;18319;48.974;8.462;2023-05-07T10:30:18;23.60;92.70
31747;DHT22;18319;48.974;8.462;2023-05-07T10:32:49;23.70;91.30
31747;DHT22;18319;48.974;8.462;2023-05-07T10:35:20;23.70;90.20
31747;DHT22;18319;48.974;8.462;2023-05-07T10:37:48;23.70;90.80
31747;DHT22;18319;48.974;8.462;2023-05-07T10:40:15;23.50;92.40
31747;DHT22;18319;48.974;8.462;2023-05-07T10:42:58;23.40;90.90
31747;DHT22;18319;48.974;8.462;2023-05-07T10:45:28;23.30;93.30
31747;DHT22;18319;48.974;8.462;2023-05-07T10:48:09;23.30;91.60
31747;DHT22;18319;48.974;8.462;2023-05-07T10:50:36;23.10;93.60
31747;DHT22;18319;48.974;8.462;2023-05-07T10:53:23;23.10;92.70
31747;DHT22;18319;48.974;8.462;2023-05-07T10:59:31;23.00;94.20
31747;DHT22;18319;48.974;8.462;2023-05-07T11:02:01;23.00;95.00
31747;DHT22;18319;48.974;8.462;2023-05-07T11:04:29;23.00;93.80
31747;DHT22;18319;48.974;8.462;2023-05-07T11:07:30;23.00;99.60
31747;DHT22;18319;48.974;8.462;2023-05-07T11:09:58;23.00;98.10
31747;DHT22;18319;48.974;8.462;2023-05-07T11:12:54;22.80;92.40
31747;DHT22;18319;48.974;8.462;2023-05-07T11:15:41;22.90;94.30
31747;DHT22;18319;48.974;8.462;2023-05-07T11:18:13;23.00;93.80
31747;DHT22;18319;48.974;8.462;2023-05-07T11:20:48;23.00;94.10
31747;DHT22;18319;48.974;8.462;2023-05-07T11:23:56;23.10;95.10
31747;DHT22;18319;48.974;8.462;2023-05-07T11:26:27;23.10;97.00
31747;DHT22;18319;48.974;8.462;2023-05-07T11:28:54;23.10;92.80
31747;DHT22;18319;48.974;8.462;2023-05-07T11:31:24;23.10;92.70
31747;DHT22;18319;48.974;8.462;2023-05-07T11:33:53;23.20;95.60
31747;DHT22;18319;48.974;8.462;2023-05-07T11:36:21;23.30;99.10
31747;DHT22;18319;48.974;8.462;2023-05-07T11:38:48;23.30;99.90
31747;DHT22;18319;48.974;8.462;2023-05-07T11:41:16;23.40;98.60
31747;DHT22;18319;48.974;8.462;2023-05-07T11:43:57;23.50;94.70
31747;DHT22;18319;48.974;8.462;2023-05-07T11:46:26;23.50;95.20
31747;DHT22;18319;48.974;8.462;2023-05-07T11:48:54;23.60;92.20
31747;DHT22;18319;48.974;8.462;2023-05-07T11:51:22;23.70;91.20
31747;DHT22;18319;48.974;8.462;2023-05-07T11:53:50;23.70;93.30
31747;DHT22;18319;48.974;8.462;2023-05-07T11:56:18;23.80;88.20
31747;DHT22;18319;48.974;8.462;2023-05-07T11:58:46;23.90;89.30
31747;DHT22;18319;48.974;8.462;2023-05-07T12:01:14;23.90;90.40
31747;DHT22;18319;48.974;8.462;2023-05-07T12:03:43;23.70;89.50
31747;DHT22;18319;48.974;8.462;2023-05-07T12:06:13;23.60;87.10
31747;DHT22;18319;48.974;8.462;2023-05-07T12:08:41;23.60;90.30
31747;DHT22;18319;48.974;8.462;2023-05-07T12:11:09;23.60;93.10
31747;DHT22;18319;48.974;8.462;2023-05-07T12:13:37;23.60;93.00
31747;DHT22;18319;48.974;8.462;2023-05-07T12:16:05;23.60;94.90
31747;DHT22;18319;48.974;8.462;2023-05-07T12:18:34;23.70;90.90
31747;DHT22;18319;48.974;8.462;2023-05-07T12:21:01;23.70;90.20
31747;DHT22;18319;48.974;8.462;2023-05-07T12:23:30;23.80;91.30
31747;DHT22;18319;48.974;8.462;2023-05-07T12:25:57;23.90;92.40
31747;DHT22;18319;48.974;8.462;2023-05-07T12:28:24;24.10;90.50
31747;DHT22;18319;48.974;8.462;2023-05-07T12:30:50;24.10;92.80
31747;DHT22;18319;48.974;8.462;2023-05-07T12:33:19;24.20;94.20
31747;DHT22;18319;48.974;8.462;2023-05-07T12:35:47;24.30;90.60
31747;DHT22;18319;48.974;8.462;2023-05-07T12:38:16;24.40;88.80
31747;DHT22;18319;48.974;8.462;2023-05-07T12:40:47;24.50;90.10
31747;DHT22;18319;48.974;8.462;2023-05-07T12:43:16;24.50;89.40
31747;DHT22;18319;48.974;8.462;2023-05-07T12:45:45;24.60;88.10
31747;DHT22;18319;48.974;8.462;2023-05-07T12:48:13;24.70;90.20
31747;DHT22;18319;48.974;8.462;2023-05-07T12:50:40;24.70;89.80
31747;DHT22;18319;48.974;8.462;2023-05-07T12:53:08;24.90;91.40
31747;DHT22;18319;48.974;8.462;2023-05-07T12:55:43;25.00;92.90
31747;DHT22;18319;48.974;8.462;2023-05-07T12:58:16;25.10;86.80
31747;DHT22;18319;48.974;8.462;2023-05-07T13:00:44;25.20;90.30
31747;DHT22;18319;48.974;8.462;2023-05-07T13:03:11;25.10;87.20
31747;DHT22;18319;48.974;8.462;2023-05-07T13:05:39;25.10;89.50
31747;DHT22;18319;48.974;8.462;2023-05-07T13:08:05;25.10;83.20
31747;DHT22;18319;48.974;8.462;2023-05-07T13:10:35;25.20;84.00
31747;DHT22;18319;48.974;8.462;2023-05-07T13:13:01;25.20;86.20
31747;DHT22;18319;48.974;8.462;2023-05-07T13:15:30;25.30;86.20
31747;DHT22;18319;48.974;8.462;2023-05-07T13:17:57;25.40;86.20
31747;DHT22;18319;48.974;8.462;2023-05-07T13:20:24;25.60;86.70
31747;DHT22;18319;48.974;8.462;2023-05-07T13:22:50;25.80;80.10
31747;DHT22;18319;48.974;8.462;2023-05-07T13:25:17;26.10;80.50
31747;DHT22;18319;48.974;8.462;2023-05-07T13:27:44;26.30;79.50
31747;DHT22;18319;48.974;8.462;2023-05-07T13:30:11;26.50;77.50
31747;DHT22;18319;48.974;8.462;2023-05-07T13:32:39;26.70;79.60
31747;DHT22;18319;48.974;8.462;2023-05-07T13:35:07;26.70;75.10
31747;DHT22;18319;48.974;8.462;2023-05-07T13:37:34;26.70;73.40
31747;DHT22;18319;48.974;8.462;2023-05-07T13:40:01;26.60;78.80
31747;DHT22;18319;48.974;8.462;2023-05-07T13:42:28;26.50;74.50
31747;DHT22;18319;48.974;8.462;2023-05-07T13:44:54;26.30;72.80
31747;DHT22;18319;48.974;8.462;2023-05-07T13:47:22;26.00;66.40
31747;DHT22;18319;48.974;8.462;2023-05-07T13:49:50;25.70;59.10
31747;DHT22;18319;48.974;8.462;2023-05-07T13:52:17;25.30;59.70
31747;DHT22;18319;48.974;8.462;2023-05-07T13:54:43;25.10;59.40
31747;DHT22;18319;48.974;8.462;2023-05-07T13:57:10;24.90;58.70
31747;DHT22;18319;48.974;8.462;2023-05-07T13:59:37;24.70;59.30
31747;DHT22;18319;48.974;8.462;2023-05-07T14:02:04;24.50;58.70
31747;DHT22;18319;48.974;8.462;2023-05-07T14:04:30;24.10;57.80
31747;DHT22;18319;48.974;8.462;2023-05-07T14:06:59;23.90;59.50
31747;DHT22;18319;48.974;8.462;2023-05-07T14:09:25;23.80;58.00
31747;DHT22;18319;48.974;8.462;2023-05-07T14:11:52;23.60;59.60
31747;DHT22;18319;48.974;8.462;2023-05-07T14:14:19;23.40;60.60
31747;DHT22;18319;48.974;8.462;2023-05-07T14:16:46;23.10;61.80
31747;DHT22;18319;48.974;8.462;2023-05-07T14:19:13;22.90;62.10
31747;DHT22;18319;48.974;8.462;2023-05-07T14:21:39;22.80;64.70
31747;DHT22;18319;48.974;8.462;2023-05-07T14:24:07;22.80;64.80
31747;DHT22;18319;48.974;8.462;2023-05-07T14:26:35;22.90;66.30
31747;DHT22;18319;48.974;8.462;2023-05-07T14:29:02;23.10;64.40
31747;DHT22;18319;48.974;8.462;2023-05-07T14:31:29;23.10;65.00
31747;DHT22;18319;48.974;8.462;2023-05-07T14:33:56;23.20;66.80
31747;DHT22;18319;48.974;8.462;2023-05-07T14:36:24;23.10;67.10
31747;DHT22;18319;48.974;8.462;2023-05-07T14:38:52;23.00;67.10
31747;DHT22;18319;48.974;8.462;2023-05-07T14:41:21;23.00;67.20
31747;DHT22;18319;48.974;8.462;2023-05-07T14:43:48;22.80;67.80
31747;DHT22;18319;48.974;8.462;2023-05-07T14:46:16;22.70;70.00
31747;DHT22;18319;48.974;8.462;2023-05-07T14:48:44;22.60;70.60
31747;DHT22;18319;48.974;8.462;2023-05-07T14:51:11;22.40;71.10
31747;DHT22;18319;48.974;8.462;2023-05-07T14:53:38;22.40;73.10
31747;DHT22;18319;48.974;8.462;2023-05-07T14:56:05;22.30;74.80
31747;DHT22;18319;48.974;8.462;2023-05-07T14:58:34;22.20;75.40
31747;DHT22;18319;48.974;8.462;2023-05-07T15:01:01;22.00;75.60
31747;DHT22;18319;48.974;8.462;2023-05-07T15:03:28;22.00;74.30
31747;DHT22;18319;48.974;8.462;2023-05-07T15:05:55;22.00;76.90
31747;DHT22;18319;48.974;8.462;2023-05-07T15:08:22;22.10;78.70
31747;DHT22;18319;48.974;8.462;2023-05-07T15:10:49;22.00;78.10
31747;DHT22;18319;48.974;8.462;2023-05-07T15:13:16;22.00;81.60
31747;DHT22;18319;48.974;8.462;2023-05-07T15:15:44;22.00;82.20
31747;DHT22;18319;48.974;8.462;2023-05-07T15:18:11;22.00;81.90
31747;DHT22;18319;48.974;8.462;2023-05-07T15:20:38;22.10;82.90
31747;DHT22;18319;48.974;8.462;2023-05-07T15:23:06;22.10;82.90
31747;DHT22;18319;48.974;8.462;2023-05-07T15:25:35;22.10;85.20
31747;DHT22;18319;48.974;8.462;2023-05-07T15:28:02;22.20;83.70
31747;DHT22;18319;48.974;8.462;2023-05-07T15:30:29;22.20;85.50
31747;DHT22;18319;48.974;8.462;2023-05-07T15:32:57;22.20;85.30
31747;DHT22;18319;48.974;8.462;2023-05-07T15:35:25;22.20;84.70
31747;DHT22;18319;48.974;8.462;2023-05-07T15:37:52;22.10;84.70